• Join FlightAware (Why Join?)
  • Login
  • US Flag 
03:00PM EDT


 

Airport Tracker/Info


-or-


 

Live Flight TrackerFlight Track Log ✈ LBQ792 ✈ 09-May-2013 ✈ KELM - KSYR

Flight Track Log - Related Links

Times and Time Zones

All times are in EDT time to prevent confusion due to time zone crossing. See the LBQ792 flight status page for this flight to view local times or setup timezone preferences in your user account.

Time Position Orientation Groundspeed Altitude Reporting Facility
EDT Latitude Longitude Course Direction KTS MPH feet Rate Location/Type
09:24PM 42.3779 -76.6958 30° Northeast  Level FlightAware Approximate
09:25PM 42.4164 -76.6654 30° Northeast  Level FlightAware Approximate
09:26PM 42.4548 -76.6350 30° Northeast  Level FlightAware Approximate
09:26PM 42.4864 -76.6667 34° Northeast 233 268 7,000  Level Boston Center
09:27PM 42.4933 -76.6045 30° Northeast  Level FlightAware Approximate
09:27PM 42.5422 -76.6197 32° Northeast 232 267 7,000  Level Boston Center
09:28PM 42.5317 -76.5740 30° Northeast  Level FlightAware Approximate
09:28PM 42.5942 -76.5725 34° Northeast 226 260 7,000  Level Boston Center
09:29PM 42.5701 -76.5435 30° Northeast  Level FlightAware Approximate
09:29PM 42.6481 -76.5253 33° Northeast 223 257 7,000  Level Boston Center
09:30PM 42.6086 -76.5130 30° Northeast  Level FlightAware Approximate
09:30PM 42.6975 -76.4775 35° Northeast 223 257 7,000  Level Boston Center
09:31PM 42.7494 -76.4300 34° Northeast 226 260 7,000 -420 Level Boston Center
09:32PM 42.8011 -76.3769 37° Northeast 233 268 6,200 -960 Descending Boston Center
09:33PM 42.8614 -76.3269 31° Northeast 257 296 5,100 -1,140 Descending Boston Center
09:34PM 42.9278 -76.2714 31° Northeast 258 297 4,000 -1,140 Descending Boston Center
09:35PM 42.9878 -76.2242 30° Northeast 253 291 2,900 -600 Descending Boston Center
09:36PM 43.0456 -76.1764 31° Northeast 246 283 2,900 -540 Level Boston Center
09:37PM 43.0831 -76.1161 50° Northeast 192 221 1,900 -1,020 Descending Boston Center
09:39PM 43.1000 -76.1000 36° Northeast  Level FlightAware Approximate
09:46PM 43.1112 -76.1063 36° Northeast  Level Estimated
09:47PM 43.1112 -76.1063 36° Northeast  Level Estimated
09:48PM 43.1112 -76.1063 36° Northeast  Level Estimated
09:49PM 43.1112 -76.1063 36° Northeast  Level Estimated